createdAt,value
2018-07-20T00:00:34.788Z,17.70
2018-07-20T00:03:03.444Z,17.70
2018-07-20T00:05:31.979Z,17.70
2018-07-20T00:08:00.574Z,17.60
2018-07-20T00:10:29.099Z,17.60
2018-07-20T00:12:57.749Z,17.60
2018-07-20T00:15:26.249Z,17.60
2018-07-20T00:17:54.815Z,17.60
2018-07-20T00:20:23.288Z,17.60
2018-07-20T00:22:51.887Z,17.50
2018-07-20T00:25:20.468Z,17.50
2018-07-20T00:27:49.118Z,17.50
2018-07-20T00:30:17.650Z,17.50
2018-07-20T00:32:46.227Z,17.50
2018-07-20T00:35:14.854Z,17.40
2018-07-20T00:37:43.489Z,17.40
2018-07-20T00:40:11.965Z,17.40
2018-07-20T00:42:40.573Z,17.40
2018-07-20T00:45:09.146Z,17.40
2018-07-20T00:47:37.665Z,17.30
2018-07-20T00:50:06.971Z,17.30
2018-07-20T00:52:35.709Z,17.30
2018-07-20T00:55:04.305Z,17.30
2018-07-20T00:57:32.810Z,17.30
2018-07-20T01:00:01.362Z,17.30
2018-07-20T01:02:29.936Z,17.20
2018-07-20T01:04:58.503Z,17.20
2018-07-20T01:07:27.057Z,17.20
2018-07-20T01:09:55.677Z,17.20
2018-07-20T01:12:24.328Z,17.20
2018-07-20T01:14:52.895Z,17.20
2018-07-20T01:17:21.392Z,17.10
2018-07-20T01:19:49.988Z,17.10
2018-07-20T01:22:18.556Z,17.00
2018-07-20T01:24:47.239Z,17.00
2018-07-20T01:27:15.859Z,17.00
2018-07-20T01:29:44.450Z,17.00
2018-07-20T01:32:12.984Z,17.00
2018-07-20T01:34:41.500Z,17.00
2018-07-20T01:37:10.078Z,17.00
2018-07-20T01:39:38.635Z,17.00
2018-07-20T01:42:07.114Z,16.90
2018-07-20T01:44:35.736Z,16.90
2018-07-20T01:47:04.309Z,16.90
2018-07-20T01:49:32.877Z,16.90
2018-07-20T01:52:01.450Z,16.90
2018-07-20T01:54:30.168Z,16.90
2018-07-20T01:56:58.710Z,16.90
2018-07-20T01:59:27.243Z,16.80
2018-07-20T02:01:55.847Z,16.80
2018-07-20T02:04:24.477Z,16.80
2018-07-20T02:06:53.095Z,16.70
2018-07-20T02:09:21.609Z,16.70
2018-07-20T02:11:50.124Z,16.70
2018-07-20T02:14:18.688Z,16.70
2018-07-20T02:16:47.276Z,16.70
2018-07-20T02:19:15.799Z,16.60
2018-07-20T02:21:44.381Z,16.60
2018-07-20T02:24:13.012Z,16.60
2018-07-20T02:26:41.567Z,16.60
2018-07-20T02:29:10.162Z,16.50
2018-07-20T02:31:38.707Z,16.50
2018-07-20T02:34:07.814Z,16.60
2018-07-20T02:36:36.406Z,16.50
2018-07-20T02:39:08.595Z,16.50
2018-07-20T02:41:37.170Z,16.50
2018-07-20T02:44:05.765Z,16.50
2018-07-20T02:46:34.314Z,16.50
2018-07-20T02:49:02.857Z,16.50
2018-07-20T02:51:31.440Z,16.50
2018-07-20T02:54:00.028Z,16.40
2018-07-20T02:56:28.635Z,16.40
2018-07-20T02:58:57.264Z,16.40
2018-07-20T03:01:25.800Z,16.40
2018-07-20T03:03:54.330Z,16.40
2018-07-20T03:06:22.862Z,16.40
2018-07-20T03:08:51.393Z,16.40
2018-07-20T03:11:19.959Z,16.40
2018-07-20T03:13:48.671Z,16.40
2018-07-20T03:16:17.299Z,16.40
2018-07-20T03:18:45.799Z,16.40
2018-07-20T03:21:14.342Z,16.40
2018-07-20T03:23:43.303Z,16.30
2018-07-20T03:26:11.820Z,16.30
2018-07-20T03:28:40.367Z,16.30
2018-07-20T03:31:08.939Z,16.30
2018-07-20T03:33:37.486Z,16.30
2018-07-20T03:36:06.029Z,16.30
2018-07-20T03:38:34.545Z,16.30
2018-07-20T03:41:03.077Z,16.30
2018-07-20T03:43:31.684Z,16.30
2018-07-20T03:46:00.254Z,16.30
2018-07-20T03:48:28.769Z,16.30
2018-07-20T03:50:57.305Z,16.20
2018-07-20T03:53:25.943Z,16.20
2018-07-20T03:55:54.621Z,16.20
2018-07-20T03:58:23.171Z,16.20
2018-07-20T04:00:51.705Z,16.20
2018-07-20T04:05:48.624Z,16.20
2018-07-20T04:08:17.236Z,16.20
2018-07-20T04:10:45.754Z,16.20
2018-07-20T04:15:42.636Z,16.20
2018-07-20T04:18:11.160Z,16.20
2018-07-20T04:20:40.638Z,16.20
2018-07-20T04:23:09.338Z,16.20
2018-07-20T04:25:37.854Z,16.20
2018-07-20T04:28:06.403Z,16.20
2018-07-20T04:30:34.921Z,16.20
2018-07-20T04:33:03.466Z,16.20
2018-07-20T04:35:32.117Z,16.30
2018-07-20T04:38:00.683Z,16.30
2018-07-20T04:42:57.699Z,16.30
2018-07-20T04:45:26.341Z,16.30
2018-07-20T04:47:55.320Z,16.40
2018-07-20T04:50:24.182Z,16.40
2018-07-20T04:52:53.117Z,16.40
2018-07-20T04:55:21.683Z,16.40
2018-07-20T05:00:18.490Z,16.40
2018-07-20T05:02:47.238Z,16.50
2018-07-20T05:05:15.826Z,16.60
2018-07-20T05:07:44.599Z,16.60
2018-07-20T05:10:13.203Z,16.80
2018-07-20T05:12:41.788Z,16.80
2018-07-20T05:15:10.340Z,16.90
2018-07-20T05:17:38.834Z,17.00
2018-07-20T05:20:07.464Z,17.10
2018-07-20T05:22:36.090Z,17.20
2018-07-20T05:25:04.659Z,17.40
2018-07-20T05:27:33.173Z,17.40
2018-07-20T05:30:01.702Z,17.60
2018-07-20T05:32:30.389Z,17.60
2018-07-20T05:34:58.878Z,17.70
2018-07-20T05:37:27.423Z,17.70
2018-07-20T05:39:56.011Z,17.80
2018-07-20T05:42:24.575Z,17.90
2018-07-20T05:44:53.122Z,17.90
2018-07-20T05:47:21.621Z,17.90
2018-07-20T05:49:50.138Z,17.90
2018-07-20T05:52:18.685Z,17.90
2018-07-20T05:54:47.234Z,18.00
2018-07-20T05:57:16.102Z,18.00
2018-07-20T05:59:44.715Z,18.10
2018-07-20T06:02:14.117Z,18.10
2018-07-20T06:04:42.757Z,18.10
2018-07-20T06:07:11.386Z,18.10
2018-07-20T06:09:39.866Z,18.20
2018-07-20T06:12:08.923Z,18.20
2018-07-20T06:14:37.439Z,18.30
2018-07-20T06:17:06.199Z,18.40
2018-07-20T06:19:34.754Z,18.40
2018-07-20T06:22:03.233Z,18.50
2018-07-20T06:24:31.785Z,18.60
2018-07-20T06:27:00.302Z,18.60
2018-07-20T06:29:28.966Z,18.70
2018-07-20T06:31:57.387Z,18.70
2018-07-20T06:34:26.066Z,18.80
2018-07-20T06:36:54.603Z,18.90
2018-07-20T06:39:23.181Z,18.90
2018-07-20T06:41:51.722Z,19.10
2018-07-20T06:44:21.220Z,19.20
2018-07-20T06:46:49.793Z,19.20
2018-07-20T06:49:18.355Z,19.40
2018-07-20T06:51:46.938Z,19.40
2018-07-20T06:54:15.566Z,19.50
2018-07-20T06:56:44.110Z,19.60
2018-07-20T06:59:12.720Z,19.70
2018-07-20T07:01:41.295Z,19.70
2018-07-20T07:04:09.902Z,19.70
2018-07-20T07:06:38.427Z,19.80
2018-07-20T07:09:08.715Z,19.90
2018-07-20T07:11:37.585Z,20.00
2018-07-20T07:14:06.552Z,20.00
2018-07-20T07:16:35.234Z,20.10
2018-07-20T07:19:04.216Z,20.20
2018-07-20T07:21:32.824Z,20.30
2018-07-20T07:24:01.701Z,20.30
2018-07-20T07:26:30.366Z,20.40
2018-07-20T07:28:59.051Z,20.40
2018-07-20T07:31:27.774Z,20.50
2018-07-20T07:33:56.383Z,20.50
2018-07-20T07:36:24.909Z,20.50
2018-07-20T07:38:53.406Z,20.60
2018-07-20T07:41:21.913Z,20.60
2018-07-20T07:43:50.526Z,20.70
2018-07-20T07:46:19.428Z,20.70
2018-07-20T07:48:47.958Z,20.70
2018-07-20T07:51:16.497Z,20.80
2018-07-20T07:53:45.077Z,20.90
2018-07-20T07:56:13.576Z,21.00
2018-07-20T07:58:42.104Z,21.00
2018-07-20T08:01:10.595Z,21.00
2018-07-20T08:03:39.114Z,21.10
2018-07-20T08:06:07.721Z,21.20
2018-07-20T08:08:36.244Z,21.20
2018-07-20T08:11:04.860Z,21.20
2018-07-20T08:13:33.658Z,21.20
2018-07-20T08:16:05.054Z,21.30
2018-07-20T08:18:33.605Z,21.40
2018-07-20T08:21:02.143Z,21.40
2018-07-20T08:30:17.013Z,21.60
2018-07-20T08:32:45.581Z,21.70
2018-07-20T08:35:14.235Z,21.80
2018-07-20T08:37:42.723Z,21.90
2018-07-20T08:40:11.232Z,21.80
2018-07-20T08:42:39.881Z,21.80
2018-07-20T08:45:08.573Z,21.80
2018-07-20T08:47:37.081Z,21.90
2018-07-20T08:50:06.232Z,22.10
2018-07-20T08:54:04.316Z,22.30
2018-07-20T08:56:32.939Z,22.30
2018-07-20T08:59:01.514Z,22.40
2018-07-20T09:01:30.156Z,22.40
2018-07-20T09:03:58.772Z,22.60
2018-07-20T09:06:27.323Z,22.80
2018-07-20T09:08:55.939Z,22.90
2018-07-20T09:11:24.467Z,22.90
2018-07-20T09:13:53.114Z,23.00
2018-07-20T09:16:21.585Z,23.00
2018-07-20T09:18:50.190Z,23.10
2018-07-20T09:21:18.713Z,23.20
2018-07-20T09:23:47.455Z,23.10
2018-07-20T09:26:15.954Z,23.20
2018-07-20T09:28:44.435Z,23.20
2018-07-20T09:31:13.008Z,23.30
2018-07-20T09:33:41.694Z,23.40
2018-07-20T09:36:10.241Z,23.50
2018-07-20T09:38:38.855Z,23.50
2018-07-20T09:41:07.408Z,23.60
2018-07-20T09:43:36.006Z,23.70
2018-07-20T09:46:04.621Z,23.70
2018-07-20T09:48:33.126Z,23.60
2018-07-20T09:51:01.648Z,23.70
2018-07-20T09:53:30.225Z,23.70
2018-07-20T09:55:58.747Z,23.70
2018-07-20T09:58:27.287Z,23.80
2018-07-20T10:00:55.895Z,23.80
2018-07-20T10:03:24.463Z,23.90
2018-07-20T10:05:52.968Z,23.90
2018-07-20T10:08:21.511Z,24.00
2018-07-20T10:10:50.754Z,23.90
2018-07-20T10:13:19.760Z,23.90
2018-07-20T10:15:48.344Z,23.80
2018-07-20T10:18:17.204Z,23.80
2018-07-20T10:20:45.702Z,23.80
2018-07-20T10:23:14.196Z,23.90
2018-07-20T10:25:42.958Z,23.80
2018-07-20T10:28:11.446Z,23.80
2018-07-20T10:30:39.986Z,23.80
2018-07-20T10:33:08.587Z,23.80
2018-07-20T10:35:37.116Z,23.80
2018-07-20T10:38:05.919Z,23.80
2018-07-20T10:40:34.455Z,23.90
2018-07-20T10:43:03.113Z,23.80
2018-07-20T10:45:31.579Z,23.90
2018-07-20T10:48:00.085Z,23.90
2018-07-20T10:50:28.580Z,23.90
2018-07-20T10:52:57.249Z,24.00
2018-07-20T10:55:25.736Z,24.10
2018-07-20T10:57:55.465Z,24.00
2018-07-20T11:00:23.960Z,23.90
2018-07-20T11:02:52.529Z,24.10
2018-07-20T11:05:21.014Z,24.30
2018-07-20T11:07:49.506Z,24.30
2018-07-20T11:10:18.013Z,24.20
2018-07-20T11:12:46.538Z,24.10
2018-07-20T11:15:15.138Z,24.40
2018-07-20T11:17:43.581Z,24.60
2018-07-20T11:20:12.072Z,24.70
2018-07-20T11:22:40.554Z,24.80
2018-07-20T11:25:09.023Z,24.80
2018-07-20T11:30:06.189Z,24.70
2018-07-20T11:32:34.686Z,24.90
2018-07-20T11:35:03.168Z,25.10
2018-07-20T11:37:31.649Z,25.20
2018-07-20T11:40:00.121Z,25.30
2018-07-20T11:42:28.598Z,25.30
2018-07-20T11:44:57.079Z,25.40
2018-07-20T11:47:25.527Z,25.50
2018-07-20T11:49:54.084Z,25.80
2018-07-20T11:52:22.575Z,26.00
2018-07-20T11:54:51.070Z,26.10
2018-07-20T11:57:19.597Z,26.20
2018-07-20T11:59:48.134Z,26.20
2018-07-20T12:02:16.596Z,26.10
2018-07-20T12:04:45.155Z,26.30
2018-07-20T12:07:13.701Z,26.40
2018-07-20T12:09:42.292Z,26.50
2018-07-20T12:12:10.803Z,26.40
2018-07-20T12:14:39.402Z,26.50
2018-07-20T12:17:07.952Z,26.50
2018-07-20T12:19:36.421Z,26.40
2018-07-20T12:22:04.872Z,26.20
2018-07-20T12:24:33.398Z,26.10
2018-07-20T12:27:01.935Z,26.10
2018-07-20T12:29:30.437Z,26.20
2018-07-20T12:31:59.041Z,26.20
2018-07-20T12:34:27.680Z,26.30
2018-07-20T12:36:56.165Z,26.50
2018-07-20T12:39:24.689Z,26.90
2018-07-20T12:41:53.195Z,27.20
2018-07-20T12:44:21.666Z,27.00
2018-07-20T12:46:50.164Z,27.10
2018-07-20T12:49:18.630Z,27.40
2018-07-20T12:51:47.131Z,27.60
2018-07-20T12:54:15.640Z,27.60
2018-07-20T12:56:44.109Z,27.80
2018-07-20T12:59:12.638Z,27.70
2018-07-20T13:01:41.144Z,27.90
2018-07-20T13:04:09.757Z,27.60
2018-07-20T13:06:38.219Z,27.60
2018-07-20T13:09:09.042Z,27.80
2018-07-20T13:11:37.511Z,27.80
2018-07-20T13:14:06.031Z,27.70
2018-07-20T13:16:34.558Z,27.70
2018-07-20T13:19:03.043Z,27.70
2018-07-20T13:21:31.501Z,27.80
2018-07-20T13:24:00.100Z,28.00
2018-07-20T13:26:28.566Z,28.20
2018-07-20T13:28:57.070Z,28.30
2018-07-20T13:31:25.545Z,28.50
2018-07-20T13:33:54.118Z,28.50
2018-07-20T13:36:22.568Z,28.40
2018-07-20T13:38:51.327Z,28.40
2018-07-20T13:41:19.790Z,28.50
2018-07-20T13:43:48.316Z,28.30
2018-07-20T13:46:16.878Z,28.00
2018-07-20T13:48:45.760Z,27.70
2018-07-20T13:51:14.270Z,27.30
2018-07-20T13:53:42.856Z,26.70
2018-07-20T13:56:11.370Z,26.20
2018-07-20T13:58:39.841Z,26.00
2018-07-20T14:01:09.380Z,25.90
2018-07-20T14:03:37.952Z,26.20
2018-07-20T14:06:06.713Z,26.80
2018-07-20T14:08:35.198Z,27.40
2018-07-20T14:11:03.698Z,27.70
2018-07-20T14:13:32.277Z,27.80
2018-07-20T14:16:00.816Z,27.60
2018-07-20T14:18:29.423Z,27.50
2018-07-20T14:20:58.117Z,27.40
2018-07-20T14:23:26.815Z,27.40
2018-07-20T14:25:55.370Z,27.20
2018-07-20T14:30:52.085Z,27.40
2018-07-20T14:33:20.672Z,27.50
2018-07-20T14:35:49.255Z,27.40
2018-07-20T14:38:17.761Z,27.10
2018-07-20T14:40:46.243Z,27.00
2018-07-20T14:43:14.832Z,26.70
2018-07-20T14:48:11.601Z,26.50
2018-07-20T14:50:40.245Z,26.60
2018-07-20T14:53:08.827Z,26.70
2018-07-20T14:55:51.984Z,26.90
2018-07-20T14:58:20.514Z,27.20
2018-07-20T15:00:49.051Z,27.40
2018-07-20T15:03:17.574Z,27.50
2018-07-20T15:05:46.071Z,27.30
2018-07-20T15:08:14.570Z,27.40
2018-07-20T15:10:43.058Z,27.50
2018-07-20T15:13:11.603Z,27.40
2018-07-20T15:15:40.055Z,27.50
2018-07-20T15:18:08.683Z,27.40
2018-07-20T15:20:37.170Z,27.20
2018-07-20T15:23:06.167Z,27.00
2018-07-20T15:25:34.654Z,26.80
2018-07-20T15:28:03.224Z,26.70
2018-07-20T15:30:31.689Z,26.40
2018-07-20T15:33:00.303Z,26.50
2018-07-20T15:35:28.804Z,26.60
2018-07-20T15:37:57.369Z,26.80
2018-07-20T15:40:25.904Z,27.00
2018-07-20T15:42:54.511Z,27.10
2018-07-20T15:45:23.106Z,27.30
2018-07-20T15:47:51.623Z,27.40
2018-07-20T15:50:20.163Z,27.60
2018-07-20T15:53:40.959Z,27.60
2018-07-20T15:55:17.221Z,27.50
2018-07-20T15:57:45.731Z,27.60
2018-07-20T16:00:14.323Z,27.60
2018-07-20T16:02:42.940Z,27.30
2018-07-20T16:05:11.504Z,27.20
2018-07-20T16:07:40.139Z,27.10
2018-07-20T16:10:08.624Z,26.90
2018-07-20T16:12:37.242Z,26.70
2018-07-20T16:15:05.864Z,26.60
2018-07-20T16:17:34.428Z,26.50
2018-07-20T16:20:02.969Z,26.40
2018-07-20T16:22:31.578Z,26.30
2018-07-20T16:25:00.090Z,26.30
2018-07-20T16:27:28.633Z,26.20
2018-07-20T16:29:57.190Z,26.00
2018-07-20T16:32:25.736Z,25.80
2018-07-20T16:34:54.295Z,25.70
2018-07-20T16:39:51.062Z,25.60
2018-07-20T16:42:19.646Z,25.50
2018-07-20T16:44:48.399Z,25.30
2018-07-20T16:47:16.987Z,25.20
2018-07-20T16:49:45.408Z,25.30
2018-07-20T16:52:14.027Z,25.30
2018-07-20T16:54:42.610Z,25.30
2018-07-20T16:59:39.446Z,25.10
2018-07-20T17:02:08.049Z,25.00
2018-07-20T17:04:36.781Z,24.80
2018-07-20T17:07:05.505Z,24.80
2018-07-20T17:09:34.154Z,24.70
2018-07-20T17:12:02.781Z,24.60
2018-07-20T17:14:31.425Z,24.50
2018-07-20T17:16:59.986Z,24.50
2018-07-20T17:19:28.603Z,24.40
2018-07-20T17:21:57.162Z,24.40
2018-07-20T17:24:25.803Z,24.30
2018-07-20T17:26:54.463Z,24.10
2018-07-20T17:29:23.034Z,24.00
2018-07-20T17:31:51.558Z,23.90
2018-07-20T17:34:20.223Z,23.90
2018-07-20T17:36:48.789Z,23.80
2018-07-20T17:39:17.438Z,23.80
2018-07-20T17:41:46.156Z,23.80
2018-07-20T17:44:15.917Z,23.70
2018-07-20T17:46:44.458Z,23.70
2018-07-20T17:49:13.054Z,23.70
2018-07-20T17:51:41.653Z,23.60
2018-07-20T17:54:10.489Z,23.60
2018-07-20T17:56:39.117Z,23.50
2018-07-20T17:59:07.681Z,23.50
2018-07-20T18:01:37.385Z,23.40
2018-07-20T18:04:06.083Z,23.40
2018-07-20T18:06:34.629Z,23.40
2018-07-20T18:09:03.247Z,23.30
2018-07-20T18:11:31.819Z,23.30
2018-07-20T18:14:00.416Z,23.30
2018-07-20T18:16:29.070Z,23.20
2018-07-20T18:18:57.583Z,23.10
2018-07-20T18:21:26.207Z,23.00
2018-07-20T18:23:54.902Z,23.00
2018-07-20T18:26:23.655Z,23.00
2018-07-20T18:28:52.236Z,23.00
2018-07-20T18:31:20.814Z,22.90
2018-07-20T18:33:49.518Z,22.90
2018-07-20T18:36:18.063Z,22.90
2018-07-20T18:38:46.600Z,22.80
2018-07-20T18:41:15.228Z,22.70
2018-07-20T18:43:43.720Z,22.70
2018-07-20T18:46:12.339Z,22.60
2018-07-20T18:48:40.880Z,22.60
2018-07-20T18:51:09.580Z,22.50
2018-07-20T18:53:38.262Z,22.40
2018-07-20T18:56:06.878Z,22.40
2018-07-20T18:58:35.326Z,22.30
2018-07-20T19:01:03.883Z,22.30
2018-07-20T19:03:32.508Z,22.30
2018-07-20T19:06:01.024Z,22.20
2018-07-20T19:08:29.572Z,22.20
2018-07-20T19:10:58.051Z,22.20
2018-07-20T19:13:26.716Z,22.10
2018-07-20T19:15:55.182Z,22.20
2018-07-20T19:18:23.659Z,22.10
2018-07-20T19:23:20.512Z,22.00
2018-07-20T19:25:49.098Z,21.90
2018-07-20T19:28:18.602Z,21.90
2018-07-20T19:30:47.209Z,21.80
2018-07-20T19:33:15.743Z,21.70
2018-07-20T19:35:44.241Z,21.60
2018-07-20T19:38:12.767Z,21.50
2018-07-20T19:40:41.316Z,21.50
2018-07-20T19:43:09.882Z,21.50
2018-07-20T19:45:38.392Z,21.40
2018-07-20T19:48:06.885Z,21.40
2018-07-20T19:50:35.612Z,21.30
2018-07-20T19:53:04.183Z,21.20
2018-07-20T19:55:32.682Z,21.10
2018-07-20T19:58:01.292Z,21.10
2018-07-20T20:00:30.871Z,21.00
2018-07-20T20:02:59.615Z,21.00
2018-07-20T20:05:28.154Z,20.90
2018-07-20T20:07:56.707Z,20.90
2018-07-20T20:10:25.242Z,20.90
2018-07-20T20:12:53.969Z,20.90
2018-07-20T20:15:22.491Z,20.80
2018-07-20T20:17:50.960Z,20.80
2018-07-20T20:20:19.615Z,20.80
2018-07-20T20:22:48.176Z,20.70
2018-07-20T20:25:16.695Z,20.70
2018-07-20T20:27:45.227Z,20.70
2018-07-20T20:30:13.925Z,20.70
2018-07-20T20:32:42.466Z,20.70
2018-07-20T20:35:10.994Z,20.70
2018-07-20T20:37:39.605Z,20.70
2018-07-20T20:40:08.678Z,20.80
2018-07-20T20:42:37.256Z,20.70
2018-07-20T20:45:06.832Z,20.70
2018-07-20T20:47:35.340Z,20.70
2018-07-20T20:50:04.141Z,20.60
2018-07-20T20:52:32.707Z,20.60
2018-07-20T20:57:29.535Z,20.60
2018-07-20T20:59:58.063Z,20.50
2018-07-20T21:02:26.534Z,20.50
2018-07-20T21:04:55.123Z,20.50
2018-07-20T21:07:23.637Z,20.50
2018-07-20T21:09:52.133Z,20.50
2018-07-20T21:12:20.688Z,20.50
2018-07-20T21:14:49.247Z,20.50
2018-07-20T21:17:17.702Z,20.60
2018-07-20T21:19:46.210Z,20.50
2018-07-20T21:22:14.716Z,20.50
2018-07-20T21:24:43.246Z,20.60
2018-07-20T21:27:11.777Z,20.60
2018-07-20T21:29:40.290Z,20.60
2018-07-20T21:32:08.777Z,20.60
2018-07-20T21:34:37.412Z,20.60
2018-07-20T21:37:05.874Z,20.50
2018-07-20T21:39:34.396Z,20.50
2018-07-20T21:42:02.931Z,20.50
2018-07-20T21:44:31.503Z,20.50
2018-07-20T21:46:59.988Z,20.50
2018-07-20T21:49:28.500Z,20.50
2018-07-20T21:51:57.006Z,20.50
2018-07-20T21:54:25.534Z,20.50
2018-07-20T21:56:54.939Z,20.50
2018-07-20T21:59:23.457Z,20.50
2018-07-20T22:01:53.049Z,20.40
2018-07-20T22:04:21.736Z,20.50
2018-07-20T22:06:50.205Z,20.40
2018-07-20T22:09:18.755Z,20.40
2018-07-20T22:11:47.403Z,20.40
2018-07-20T22:14:16.028Z,20.40
2018-07-20T22:19:12.758Z,20.40
2018-07-20T22:21:41.263Z,20.40
2018-07-20T22:24:09.826Z,20.40
2018-07-20T22:26:38.391Z,20.40
2018-07-20T22:29:06.942Z,20.40
2018-07-20T22:31:35.498Z,20.40
2018-07-20T22:34:04.118Z,20.40
2018-07-20T22:36:32.682Z,20.40
2018-07-20T22:39:01.284Z,20.40
2018-07-20T22:41:29.822Z,20.40
2018-07-20T22:43:58.447Z,20.40
2018-07-20T22:46:26.994Z,20.40
2018-07-20T22:48:55.599Z,20.40
2018-07-20T22:51:24.115Z,20.40
2018-07-20T22:53:52.707Z,20.40
2018-07-20T22:56:21.303Z,20.50
2018-07-20T22:58:49.814Z,20.50
2018-07-20T23:01:18.366Z,20.60
2018-07-20T23:03:46.911Z,20.50
2018-07-20T23:06:15.424Z,20.50
2018-07-20T23:08:44.213Z,20.60
2018-07-20T23:11:13.344Z,20.50
2018-07-20T23:13:41.977Z,20.60
2018-07-20T23:16:10.637Z,20.60
2018-07-20T23:18:39.113Z,20.60
2018-07-20T23:23:35.894Z,20.60
2018-07-20T23:26:04.394Z,20.60
2018-07-20T23:28:32.891Z,20.60
2018-07-20T23:31:01.496Z,20.60
2018-07-20T23:33:30.106Z,20.60
2018-07-20T23:35:58.693Z,20.60
2018-07-20T23:38:27.283Z,20.60
2018-07-20T23:40:55.781Z,20.60
2018-07-20T23:43:24.379Z,20.60
2018-07-20T23:45:52.841Z,20.50
2018-07-20T23:48:21.442Z,20.60
2018-07-20T23:50:50.051Z,20.60
2018-07-20T23:53:20.264Z,20.50
2018-07-20T23:55:49.166Z,20.50
2018-07-20T23:58:17.740Z,20.50
